New Deal, TX

4:33 AM CDT on September 02, 2014 (GMT -0500)
Lubbock International | Change Station
CLOSE
Current Station
Airport
Location: Lubbock,
Elevation: 3241 ft
Nearby Weather Stations

Elev 3241 ft 33.67 °N, 101.82 °W | Updated 40 minutes ago

Clear
Clear
79 °F
Feels Like 79 °F
N
14
Wind Variable Wind from South

Today
High -- | Low -- °F
--% Chance of Precip.
Yesterday
High -- | Low -- °F
Precip. -- in
7:21 AM 8:11 PM
Waxing Crescent, 49% visible
Pressure 29.73 in
Visibility 10.0 miles
Clouds Clear
Dew Point 60 °F
Humidity 52%
Rainfall 0.00 in
Snow Depth Not available.
UV 0 out of 12
Pollen 11.00 out of 12
Air Quality Not available.
Flu Activity Not available.
METAR KLBB 020853Z 17012KT 10SM CLR 26/16 A2993 RMK AO2 SLP068 T02610156 51005 $

More Conditions Fewer Conditions

Pressure 29.73 in
Visibility 10.0 miles
Clouds Clear
Dew Point 60 °F
Humidity 52%
Rainfall 0.00 in
Snow Depth Not available.
UV 0 out of 12
Pollen 11.00 out of 12
Air Quality Not available.
Flu Activity Not available.
METAR KLBB 020853Z 17012KT 10SM CLR 26/16 A2993 RMK AO2 SLP068 T02610156 51005 $

More Conditions Fewer Conditions

10-Day Weather Forecast

Almanac

Astronomy

Sep. 02, 2014 Rise Set
Actual Time 7:21 AM CDT 8:11 PM CDT
Civil Twilight 6:56 AM CDT 8:36 PM CDT
Nautical Twilight 6:26 AM CDT 9:06 PM CDT
Astronomical Twilight 5:55 AM CDT 9:37 PM CDT
Moon 2:47 PM CDT 12:35 AM CDT
Length of Visible Light 13h 40m
Length of Day
12h 49m
Tomorrow will be 2m 1s shorter.
Waxing Crescent, 49% of the Moon is Illuminated
Today
Waxing Crescent
Sep 2
First Quarter
Sep 8
Full
Sep 15
Last Quarter
Sep 24
New

Today's Extremes

State Highs State Lows

Community

WunderPhotos

Upload Photos

1,749,587 photos uploaded!

WunderBlogs® & News

Nearby

Air Quality

  Air Quality AQ Index Pollutant
Tuesday Good
PM10
Tuesday Good
OZONE
Wednesday Good
PM10
Wednesday Good
OZONE
Thursday Good
PM10
Thursday Good
OZONE

Snow Depth

Station Depth Elevation
No new snow has been reported.

Earthquake Activity

City Distance Mag. Time & Date
No recent earthquake activity has been reported nearby.
Minimum magnitude displayed is 2.5.

Coastal Water Temperatures

Place Temperature
No Stations Reporting

Nearby Weather Stations